Terminal Aerodrome Forecast
Issued by NWS

Home | Current Version | Previous Version | Text Only | Print | Product List | Glossary On
Versions: 1 2 3 4 5 6 7 8 9 10 11 12 13 14
000
FTUS43 KLSX 280706 AAA
TAFUIN
TAF AMD
KUIN 280706Z 2807/2906 17008KT P6SM VCSH OVC015
     FM281500 19010KT P6SM SCT025 BKN050
     FM282100 19012KT P6SM VCTS BKN050CB
     FM290300 20005KT P6SM FEW050 SCT120=

USA.gov is the U.S. government's official web portal to all federal, state and local government web resources and services.